sensor_id;sensor_type;location;lat;lon;timestamp;P1;durP1;ratioP1;P2;durP2;ratioP2
60026;SDS011;45891;53.006;6.512;2022-09-12T00:00:28;13.73;;;8.20;;
60026;SDS011;45891;53.006;6.512;2022-09-12T00:02:56;13.25;;;8.90;;
60026;SDS011;45891;53.006;6.512;2022-09-12T00:05:23;13.27;;;6.60;;
60026;SDS011;45891;53.006;6.512;2022-09-12T00:07:50;14.02;;;8.45;;
60026;SDS011;45891;53.006;6.512;2022-09-12T00:10:17;17.02;;;9.10;;
60026;SDS011;45891;53.006;6.512;2022-09-12T00:12:43;13.68;;;9.60;;
60026;SDS011;45891;53.006;6.512;2022-09-12T00:15:09;10.20;;;6.57;;
60026;SDS011;45891;53.006;6.512;2022-09-12T00:17:36;13.15;;;7.85;;
60026;SDS011;45891;53.006;6.512;2022-09-12T00:20:06;13.20;;;7.03;;
60026;SDS011;45891;53.006;6.512;2022-09-12T00:22:36;11.35;;;7.88;;
60026;SDS011;45891;53.006;6.512;2022-09-12T00:25:03;12.43;;;7.55;;
60026;SDS011;45891;53.006;6.512;2022-09-12T00:27:30;16.58;;;8.45;;
60026;SDS011;45891;53.006;6.512;2022-09-12T00:29:56;13.23;;;8.00;;
60026;SDS011;45891;53.006;6.512;2022-09-12T00:32:22;17.75;;;9.77;;
60026;SDS011;45891;53.006;6.512;2022-09-12T00:34:48;15.05;;;9.93;;
60026;SDS011;45891;53.006;6.512;2022-09-12T00:37:14;12.82;;;8.98;;
60026;SDS011;45891;53.006;6.512;2022-09-12T00:39:40;13.48;;;8.57;;
60026;SDS011;45891;53.006;6.512;2022-09-12T00:42:08;15.80;;;10.60;;
60026;SDS011;45891;53.006;6.512;2022-09-12T00:50:09;13.75;;;10.13;;
60026;SDS011;45891;53.006;6.512;2022-09-12T00:52:40;14.38;;;10.40;;
60026;SDS011;45891;53.006;6.512;2022-09-12T00:55:26;15.57;;;11.07;;
60026;SDS011;45891;53.006;6.512;2022-09-12T00:57:58;15.82;;;11.88;;
60026;SDS011;45891;53.006;6.512;2022-09-12T01:00:28;16.08;;;11.75;;
60026;SDS011;45891;53.006;6.512;2022-09-12T01:03:02;17.73;;;12.45;;
60026;SDS011;45891;53.006;6.512;2022-09-12T01:05:33;18.05;;;13.55;;
60026;SDS011;45891;53.006;6.512;2022-09-12T01:08:01;18.35;;;13.70;;
60026;SDS011;45891;53.006;6.512;2022-09-12T01:10:29;18.75;;;14.13;;
60026;SDS011;45891;53.006;6.512;2022-09-12T01:12:55;17.50;;;13.45;;
60026;SDS011;45891;53.006;6.512;2022-09-12T01:15:22;15.75;;;12.98;;
60026;SDS011;45891;53.006;6.512;2022-09-12T01:31:28;22.17;;;13.60;;
60026;SDS011;45891;53.006;6.512;2022-09-12T01:36:54;17.27;;;14.38;;
60026;SDS011;45891;53.006;6.512;2022-09-12T01:39:29;17.95;;;14.73;;
60026;SDS011;45891;53.006;6.512;2022-09-12T01:42:14;20.88;;;15.52;;
60026;SDS011;45891;53.006;6.512;2022-09-12T01:45:02;20.27;;;17.08;;
60026;SDS011;45891;53.006;6.512;2022-09-12T01:50:09;22.10;;;16.77;;
60026;SDS011;45891;53.006;6.512;2022-09-12T01:52:49;24.95;;;17.90;;
60026;SDS011;45891;53.006;6.512;2022-09-12T01:55:24;20.00;;;16.48;;
60026;SDS011;45891;53.006;6.512;2022-09-12T01:58:05;23.75;;;17.90;;
60026;SDS011;45891;53.006;6.512;2022-09-12T02:00:32;24.10;;;19.45;;
60026;SDS011;45891;53.006;6.512;2022-09-12T02:03:08;23.08;;;18.40;;
60026;SDS011;45891;53.006;6.512;2022-09-12T02:05:41;21.23;;;17.33;;
60026;SDS011;45891;53.006;6.512;2022-09-12T02:08:30;23.60;;;17.63;;
60026;SDS011;45891;53.006;6.512;2022-09-12T02:11:06;25.35;;;20.20;;
60026;SDS011;45891;53.006;6.512;2022-09-12T02:13:38;22.55;;;19.50;;
60026;SDS011;45891;53.006;6.512;2022-09-12T02:16:45;24.75;;;20.40;;
60026;SDS011;45891;53.006;6.512;2022-09-12T02:19:19;22.38;;;18.80;;
60026;SDS011;45891;53.006;6.512;2022-09-12T02:21:55;25.42;;;19.05;;
60026;SDS011;45891;53.006;6.512;2022-09-12T02:24:24;29.48;;;19.58;;
60026;SDS011;45891;53.006;6.512;2022-09-12T02:27:09;27.83;;;20.65;;
60026;SDS011;45891;53.006;6.512;2022-09-12T02:29:41;24.73;;;20.67;;
60026;SDS011;45891;53.006;6.512;2022-09-12T02:32:31;25.30;;;20.92;;
60026;SDS011;45891;53.006;6.512;2022-09-12T02:37:53;25.95;;;20.73;;
60026;SDS011;45891;53.006;6.512;2022-09-12T02:40:36;24.85;;;20.90;;
60026;SDS011;45891;53.006;6.512;2022-09-12T02:43:03;26.75;;;22.05;;
60026;SDS011;45891;53.006;6.512;2022-09-12T02:45:30;26.60;;;21.08;;
60026;SDS011;45891;53.006;6.512;2022-09-12T02:48:03;30.55;;;22.85;;
60026;SDS011;45891;53.006;6.512;2022-09-12T02:50:34;28.85;;;20.73;;
60026;SDS011;45891;53.006;6.512;2022-09-12T02:53:01;28.60;;;22.83;;
60026;SDS011;45891;53.006;6.512;2022-09-12T02:55:31;26.73;;;22.80;;
60026;SDS011;45891;53.006;6.512;2022-09-12T02:58:03;27.35;;;22.27;;
60026;SDS011;45891;53.006;6.512;2022-09-12T03:00:34;27.67;;;21.42;;
60026;SDS011;45891;53.006;6.512;2022-09-12T03:03:09;28.92;;;21.75;;
60026;SDS011;45891;53.006;6.512;2022-09-12T03:05:46;24.35;;;20.15;;
60026;SDS011;45891;53.006;6.512;2022-09-12T03:13:53;30.17;;;23.50;;
60026;SDS011;45891;53.006;6.512;2022-09-12T03:22:05;30.05;;;23.58;;
60026;SDS011;45891;53.006;6.512;2022-09-12T03:24:35;28.88;;;23.13;;
60026;SDS011;45891;53.006;6.512;2022-09-12T03:29:45;33.92;;;25.92;;
60026;SDS011;45891;53.006;6.512;2022-09-12T03:32:13;29.98;;;24.30;;
60026;SDS011;45891;53.006;6.512;2022-09-12T03:34:39;28.98;;;24.50;;
60026;SDS011;45891;53.006;6.512;2022-09-12T03:37:05;35.67;;;27.90;;
60026;SDS011;45891;53.006;6.512;2022-09-12T03:39:32;34.17;;;26.77;;
60026;SDS011;45891;53.006;6.512;2022-09-12T03:41:59;33.63;;;26.95;;
60026;SDS011;45891;53.006;6.512;2022-09-12T03:44:25;33.45;;;25.08;;
60026;SDS011;45891;53.006;6.512;2022-09-12T03:46:51;34.95;;;26.48;;
60026;SDS011;45891;53.006;6.512;2022-09-12T03:49:17;34.17;;;27.05;;
60026;SDS011;45891;53.006;6.512;2022-09-12T03:51:43;33.80;;;26.70;;
60026;SDS011;45891;53.006;6.512;2022-09-12T03:54:09;37.15;;;27.80;;
60026;SDS011;45891;53.006;6.512;2022-09-12T03:56:36;33.65;;;27.58;;
60026;SDS011;45891;53.006;6.512;2022-09-12T03:59:05;33.63;;;25.63;;
60026;SDS011;45891;53.006;6.512;2022-09-12T04:01:32;31.25;;;25.65;;
60026;SDS011;45891;53.006;6.512;2022-09-12T04:03:59;33.80;;;26.13;;
60026;SDS011;45891;53.006;6.512;2022-09-12T04:06:25;30.83;;;24.10;;
60026;SDS011;45891;53.006;6.512;2022-09-12T04:08:52;32.95;;;26.33;;
60026;SDS011;45891;53.006;6.512;2022-09-12T04:11:19;30.55;;;24.30;;
60026;SDS011;45891;53.006;6.512;2022-09-12T04:13:47;35.38;;;27.02;;
60026;SDS011;45891;53.006;6.512;2022-09-12T04:16:14;31.88;;;25.45;;
60026;SDS011;45891;53.006;6.512;2022-09-12T04:18:41;33.38;;;25.83;;
60026;SDS011;45891;53.006;6.512;2022-09-12T04:21:09;31.85;;;24.80;;
60026;SDS011;45891;53.006;6.512;2022-09-12T04:23:37;32.28;;;25.08;;
60026;SDS011;45891;53.006;6.512;2022-09-12T04:26:03;32.05;;;25.45;;
60026;SDS011;45891;53.006;6.512;2022-09-12T04:28:33;31.20;;;25.05;;
60026;SDS011;45891;53.006;6.512;2022-09-12T04:31:03;29.95;;;22.73;;
60026;SDS011;45891;53.006;6.512;2022-09-12T04:33:54;30.15;;;25.02;;
60026;SDS011;45891;53.006;6.512;2022-09-12T04:36:25;36.75;;;27.70;;
60026;SDS011;45891;53.006;6.512;2022-09-12T04:38:53;34.53;;;25.95;;
60026;SDS011;45891;53.006;6.512;2022-09-12T04:41:23;35.25;;;26.88;;
60026;SDS011;45891;53.006;6.512;2022-09-12T04:43:51;33.08;;;25.98;;
60026;SDS011;45891;53.006;6.512;2022-09-12T04:46:29;36.42;;;26.85;;
60026;SDS011;45891;53.006;6.512;2022-09-12T04:48:58;32.50;;;26.55;;
60026;SDS011;45891;53.006;6.512;2022-09-12T04:51:26;32.97;;;25.63;;
60026;SDS011;45891;53.006;6.512;2022-09-12T04:53:58;36.42;;;27.02;;
60026;SDS011;45891;53.006;6.512;2022-09-12T04:56:26;33.13;;;26.38;;
60026;SDS011;45891;53.006;6.512;2022-09-12T04:58:57;33.15;;;26.20;;
60026;SDS011;45891;53.006;6.512;2022-09-12T05:01:25;35.72;;;27.80;;
60026;SDS011;45891;53.006;6.512;2022-09-12T05:03:53;33.47;;;26.30;;
60026;SDS011;45891;53.006;6.512;2022-09-12T05:06:23;35.10;;;25.23;;
60026;SDS011;45891;53.006;6.512;2022-09-12T05:08:55;35.85;;;26.90;;
60026;SDS011;45891;53.006;6.512;2022-09-12T05:11:23;32.63;;;26.55;;
60026;SDS011;45891;53.006;6.512;2022-09-12T05:13:51;32.10;;;26.17;;
60026;SDS011;45891;53.006;6.512;2022-09-12T05:16:18;34.00;;;26.52;;
60026;SDS011;45891;53.006;6.512;2022-09-12T05:18:45;32.72;;;26.05;;
60026;SDS011;45891;53.006;6.512;2022-09-12T05:21:14;34.35;;;26.40;;
60026;SDS011;45891;53.006;6.512;2022-09-12T05:23:42;31.98;;;26.05;;
60026;SDS011;45891;53.006;6.512;2022-09-12T05:26:12;31.33;;;24.80;;
60026;SDS011;45891;53.006;6.512;2022-09-12T05:28:40;34.90;;;26.70;;
60026;SDS011;45891;53.006;6.512;2022-09-12T05:31:09;31.48;;;24.63;;
60026;SDS011;45891;53.006;6.512;2022-09-12T05:33:40;33.65;;;26.08;;
60026;SDS011;45891;53.006;6.512;2022-09-12T05:36:11;33.75;;;26.15;;
60026;SDS011;45891;53.006;6.512;2022-09-12T05:38:39;35.67;;;27.80;;
60026;SDS011;45891;53.006;6.512;2022-09-12T05:41:09;33.90;;;26.42;;
60026;SDS011;45891;53.006;6.512;2022-09-12T05:43:40;35.47;;;26.95;;
60026;SDS011;45891;53.006;6.512;2022-09-12T05:46:08;32.53;;;25.42;;
60026;SDS011;45891;53.006;6.512;2022-09-12T05:48:37;34.95;;;26.48;;
60026;SDS011;45891;53.006;6.512;2022-09-12T05:51:16;34.35;;;26.73;;
60026;SDS011;45891;53.006;6.512;2022-09-12T05:53:49;33.25;;;27.35;;
60026;SDS011;45891;53.006;6.512;2022-09-12T05:56:18;34.10;;;26.25;;
60026;SDS011;45891;53.006;6.512;2022-09-12T05:58:51;34.78;;;27.33;;
60026;SDS011;45891;53.006;6.512;2022-09-12T06:01:26;34.58;;;26.23;;
60026;SDS011;45891;53.006;6.512;2022-09-12T06:03:55;33.28;;;26.75;;
60026;SDS011;45891;53.006;6.512;2022-09-12T06:06:25;33.10;;;26.70;;
60026;SDS011;45891;53.006;6.512;2022-09-12T06:08:53;37.75;;;27.67;;
60026;SDS011;45891;53.006;6.512;2022-09-12T06:11:23;37.45;;;28.70;;
60026;SDS011;45891;53.006;6.512;2022-09-12T06:13:50;38.15;;;28.65;;
60026;SDS011;45891;53.006;6.512;2022-09-12T06:16:26;39.28;;;29.65;;
60026;SDS011;45891;53.006;6.512;2022-09-12T06:18:55;42.08;;;30.20;;
60026;SDS011;45891;53.006;6.512;2022-09-12T06:21:22;38.33;;;29.88;;
60026;SDS011;45891;53.006;6.512;2022-09-12T06:23:53;39.65;;;28.45;;
60026;SDS011;45891;53.006;6.512;2022-09-12T06:26:20;39.83;;;29.70;;
60026;SDS011;45891;53.006;6.512;2022-09-12T06:28:48;37.83;;;29.05;;
60026;SDS011;45891;53.006;6.512;2022-09-12T06:31:18;38.88;;;28.85;;
60026;SDS011;45891;53.006;6.512;2022-09-12T06:33:50;36.80;;;29.42;;
60026;SDS011;45891;53.006;6.512;2022-09-12T06:36:18;41.88;;;29.40;;
60026;SDS011;45891;53.006;6.512;2022-09-12T06:38:47;40.13;;;30.55;;
60026;SDS011;45891;53.006;6.512;2022-09-12T06:41:17;39.60;;;30.52;;
60026;SDS011;45891;53.006;6.512;2022-09-12T06:43:43;40.55;;;30.98;;
60026;SDS011;45891;53.006;6.512;2022-09-12T06:46:09;41.03;;;31.98;;
60026;SDS011;45891;53.006;6.512;2022-09-12T06:48:37;43.63;;;31.58;;
60026;SDS011;45891;53.006;6.512;2022-09-12T06:51:05;43.15;;;32.05;;
60026;SDS011;45891;53.006;6.512;2022-09-12T06:53:34;40.13;;;31.45;;
60026;SDS011;45891;53.006;6.512;2022-09-12T06:56:03;44.72;;;32.08;;
60026;SDS011;45891;53.006;6.512;2022-09-12T06:58:34;45.10;;;33.83;;
60026;SDS011;45891;53.006;6.512;2022-09-12T07:01:02;44.17;;;33.47;;
60026;SDS011;45891;53.006;6.512;2022-09-12T07:03:30;43.90;;;33.15;;
60026;SDS011;45891;53.006;6.512;2022-09-12T07:05:57;46.10;;;34.10;;
60026;SDS011;45891;53.006;6.512;2022-09-12T07:08:26;45.83;;;32.80;;
60026;SDS011;45891;53.006;6.512;2022-09-12T07:10:55;43.60;;;34.13;;
60026;SDS011;45891;53.006;6.512;2022-09-12T07:13:22;41.63;;;32.30;;
60026;SDS011;45891;53.006;6.512;2022-09-12T07:15:48;42.47;;;32.15;;
60026;SDS011;45891;53.006;6.512;2022-09-12T07:18:16;43.53;;;32.70;;
60026;SDS011;45891;53.006;6.512;2022-09-12T07:20:42;44.80;;;33.10;;
60026;SDS011;45891;53.006;6.512;2022-09-12T07:23:08;45.45;;;33.17;;
60026;SDS011;45891;53.006;6.512;2022-09-12T07:25:35;42.67;;;32.13;;
60026;SDS011;45891;53.006;6.512;2022-09-12T07:28:02;46.13;;;32.75;;
60026;SDS011;45891;53.006;6.512;2022-09-12T07:30:28;42.75;;;31.10;;
60026;SDS011;45891;53.006;6.512;2022-09-12T07:32:54;44.95;;;32.35;;
60026;SDS011;45891;53.006;6.512;2022-09-12T07:35:20;41.17;;;31.30;;
60026;SDS011;45891;53.006;6.512;2022-09-12T07:37:46;44.35;;;32.72;;
60026;SDS011;45891;53.006;6.512;2022-09-12T07:40:12;42.97;;;31.52;;
60026;SDS011;45891;53.006;6.512;2022-09-12T07:42:39;41.25;;;29.58;;
60026;SDS011;45891;53.006;6.512;2022-09-12T07:45:05;39.53;;;30.17;;
60026;SDS011;45891;53.006;6.512;2022-09-12T07:47:32;39.13;;;29.20;;
60026;SDS011;45891;53.006;6.512;2022-09-12T07:49:58;36.95;;;28.67;;
60026;SDS011;45891;53.006;6.512;2022-09-12T07:52:24;39.03;;;29.10;;
60026;SDS011;45891;53.006;6.512;2022-09-12T07:54:50;37.47;;;29.17;;
60026;SDS011;45891;53.006;6.512;2022-09-12T07:57:16;36.78;;;29.02;;
60026;SDS011;45891;53.006;6.512;2022-09-12T07:59:43;39.45;;;29.48;;
60026;SDS011;45891;53.006;6.512;2022-09-12T08:02:09;38.30;;;29.13;;
60026;SDS011;45891;53.006;6.512;2022-09-12T08:04:38;35.95;;;28.02;;
60026;SDS011;45891;53.006;6.512;2022-09-12T08:07:07;36.83;;;27.48;;
60026;SDS011;45891;53.006;6.512;2022-09-12T08:09:33;36.45;;;26.50;;
60026;SDS011;45891;53.006;6.512;2022-09-12T08:12:00;35.40;;;28.15;;
60026;SDS011;45891;53.006;6.512;2022-09-12T08:14:26;36.35;;;28.52;;
60026;SDS011;45891;53.006;6.512;2022-09-12T08:16:53;36.03;;;27.65;;
60026;SDS011;45891;53.006;6.512;2022-09-12T08:19:19;34.47;;;26.52;;
60026;SDS011;45891;53.006;6.512;2022-09-12T08:21:47;35.47;;;26.20;;
60026;SDS011;45891;53.006;6.512;2022-09-12T08:24:13;34.53;;;26.35;;
60026;SDS011;45891;53.006;6.512;2022-09-12T08:26:40;32.70;;;25.77;;
60026;SDS011;45891;53.006;6.512;2022-09-12T08:29:06;33.35;;;25.92;;
60026;SDS011;45891;53.006;6.512;2022-09-12T08:31:32;36.10;;;26.10;;
60026;SDS011;45891;53.006;6.512;2022-09-12T08:34:01;33.55;;;25.92;;
60026;SDS011;45891;53.006;6.512;2022-09-12T08:36:29;35.05;;;25.60;;
60026;SDS011;45891;53.006;6.512;2022-09-12T08:38:57;32.80;;;24.48;;
60026;SDS011;45891;53.006;6.512;2022-09-12T08:54:53;34.35;;;24.90;;
60026;SDS011;45891;53.006;6.512;2022-09-12T08:57:21;30.30;;;23.20;;
60026;SDS011;45891;53.006;6.512;2022-09-12T08:59:48;33.08;;;24.08;;
60026;SDS011;45891;53.006;6.512;2022-09-12T09:04:51;32.08;;;23.48;;
60026;SDS011;45891;53.006;6.512;2022-09-12T09:12:43;33.58;;;25.88;;
60026;SDS011;45891;53.006;6.512;2022-09-12T09:20:58;36.88;;;27.23;;
60026;SDS011;45891;53.006;6.512;2022-09-12T09:23:37;39.33;;;28.38;;
60026;SDS011;45891;53.006;6.512;2022-09-12T09:26:12;37.03;;;27.17;;
60026;SDS011;45891;53.006;6.512;2022-09-12T09:28:49;41.15;;;30.55;;
60026;SDS011;45891;53.006;6.512;2022-09-12T09:31:19;41.70;;;29.95;;
60026;SDS011;45891;53.006;6.512;2022-09-12T09:33:51;39.67;;;29.42;;
60026;SDS011;45891;53.006;6.512;2022-09-12T09:36:30;39.58;;;29.35;;
60026;SDS011;45891;53.006;6.512;2022-09-12T09:39:05;41.38;;;28.63;;
60026;SDS011;45891;53.006;6.512;2022-09-12T09:44:28;40.65;;;29.58;;
60026;SDS011;45891;53.006;6.512;2022-09-12T09:46:55;42.63;;;30.33;;
60026;SDS011;45891;53.006;6.512;2022-09-12T09:49:25;40.97;;;30.60;;
60026;SDS011;45891;53.006;6.512;2022-09-12T09:51:53;39.78;;;28.95;;
60026;SDS011;45891;53.006;6.512;2022-09-12T09:54:23;41.92;;;30.13;;
60026;SDS011;45891;53.006;6.512;2022-09-12T09:56:54;37.85;;;27.85;;
60026;SDS011;45891;53.006;6.512;2022-09-12T09:59:28;38.55;;;29.02;;
60026;SDS011;45891;53.006;6.512;2022-09-12T10:02:00;41.28;;;29.85;;
60026;SDS011;45891;53.006;6.512;2022-09-12T10:04:51;40.00;;;30.23;;
60026;SDS011;45891;53.006;6.512;2022-09-12T10:07:19;38.92;;;28.85;;
60026;SDS011;45891;53.006;6.512;2022-09-12T10:10:03;42.10;;;29.63;;
60026;SDS011;45891;53.006;6.512;2022-09-12T10:12:30;35.45;;;27.42;;
60026;SDS011;45891;53.006;6.512;2022-09-12T10:14:57;36.42;;;27.15;;
60026;SDS011;45891;53.006;6.512;2022-09-12T10:19:56;33.63;;;25.67;;
60026;SDS011;45891;53.006;6.512;2022-09-12T10:22:26;34.00;;;25.35;;
60026;SDS011;45891;53.006;6.512;2022-09-12T10:24:54;30.40;;;22.30;;
60026;SDS011;45891;53.006;6.512;2022-09-12T10:27:24;29.13;;;22.43;;
60026;SDS011;45891;53.006;6.512;2022-09-12T10:32:35;30.08;;;22.30;;
60026;SDS011;45891;53.006;6.512;2022-09-12T10:35:15;28.85;;;20.20;;
60026;SDS011;45891;53.006;6.512;2022-09-12T10:40:19;19.67;;;14.45;;
60026;SDS011;45891;53.006;6.512;2022-09-12T10:42:52;19.83;;;14.98;;
60026;SDS011;45891;53.006;6.512;2022-09-12T10:45:22;20.33;;;14.70;;
60026;SDS011;45891;53.006;6.512;2022-09-12T10:47:50;19.83;;;14.65;;
60026;SDS011;45891;53.006;6.512;2022-09-12T10:50:21;22.08;;;13.30;;
60026;SDS011;45891;53.006;6.512;2022-09-12T10:52:52;18.00;;;13.43;;
60026;SDS011;45891;53.006;6.512;2022-09-12T10:55:24;19.30;;;13.90;;
60026;SDS011;45891;53.006;6.512;2022-09-12T11:00:34;19.45;;;14.00;;
60026;SDS011;45891;53.006;6.512;2022-09-12T11:06:43;20.50;;;14.38;;
60026;SDS011;45891;53.006;6.512;2022-09-12T11:09:28;19.45;;;13.52;;
60026;SDS011;45891;53.006;6.512;2022-09-12T11:12:01;19.00;;;14.30;;
60026;SDS011;45891;53.006;6.512;2022-09-12T11:32:10;13.95;;;9.75;;
60026;SDS011;45891;53.006;6.512;2022-09-12T11:37:44;15.68;;;11.20;;
60026;SDS011;45891;53.006;6.512;2022-09-12T11:43:11;14.50;;;10.55;;
60026;SDS011;45891;53.006;6.512;2022-09-12T11:45:48;15.68;;;10.00;;
60026;SDS011;45891;53.006;6.512;2022-09-12T11:48:23;14.20;;;8.52;;
60026;SDS011;45891;53.006;6.512;2022-09-12T11:51:02;14.40;;;8.45;;
60026;SDS011;45891;53.006;6.512;2022-09-12T11:53:35;14.27;;;8.45;;
60026;SDS011;45891;53.006;6.512;2022-09-12T11:56:07;13.85;;;8.30;;
60026;SDS011;45891;53.006;6.512;2022-09-12T11:58:45;13.57;;;8.32;;
60026;SDS011;45891;53.006;6.512;2022-09-12T12:01:25;17.13;;;9.80;;
60026;SDS011;45891;53.006;6.512;2022-09-12T12:03:54;11.30;;;7.05;;
60026;SDS011;45891;53.006;6.512;2022-09-12T12:06:24;11.82;;;5.65;;
60026;SDS011;45891;53.006;6.512;2022-09-12T12:08:51;10.38;;;5.10;;
60026;SDS011;45891;53.006;6.512;2022-09-12T12:14:02;10.13;;;5.00;;
60026;SDS011;45891;53.006;6.512;2022-09-12T12:16:37;10.88;;;5.07;;
60026;SDS011;45891;53.006;6.512;2022-09-12T12:19:28;11.15;;;6.03;;
60026;SDS011;45891;53.006;6.512;2022-09-12T12:21:53;12.55;;;6.15;;
60026;SDS011;45891;53.006;6.512;2022-09-12T12:24:20;10.77;;;6.25;;
60026;SDS011;45891;53.006;6.512;2022-09-12T12:32:17;12.48;;;7.10;;
60026;SDS011;45891;53.006;6.512;2022-09-12T12:34:45;11.07;;;6.18;;
60026;SDS011;45891;53.006;6.512;2022-09-12T12:45:46;10.00;;;5.32;;
60026;SDS011;45891;53.006;6.512;2022-09-12T12:48:01;11.82;;;7.20;;
60026;SDS011;45891;53.006;6.512;2022-09-12T12:50:34;13.35;;;7.80;;
60026;SDS011;45891;53.006;6.512;2022-09-12T13:03:37;11.45;;;6.30;;
60026;SDS011;45891;53.006;6.512;2022-09-12T13:06:07;11.07;;;5.57;;
60026;SDS011;45891;53.006;6.512;2022-09-12T13:08:59;10.02;;;5.32;;
60026;SDS011;45891;53.006;6.512;2022-09-12T13:11:33;11.15;;;6.05;;
60026;SDS011;45891;53.006;6.512;2022-09-12T13:14:03;11.77;;;6.83;;
60026;SDS011;45891;53.006;6.512;2022-09-12T13:16:39;11.32;;;6.32;;
60026;SDS011;45891;53.006;6.512;2022-09-12T13:19:20;11.50;;;6.20;;
60026;SDS011;45891;53.006;6.512;2022-09-12T13:21:55;11.18;;;5.72;;
60026;SDS011;45891;53.006;6.512;2022-09-12T13:24:25;11.50;;;5.40;;
60026;SDS011;45891;53.006;6.512;2022-09-12T13:26:51;12.15;;;6.18;;
60026;SDS011;45891;53.006;6.512;2022-09-12T13:29:18;12.20;;;5.50;;
60026;SDS011;45891;53.006;6.512;2022-09-12T13:31:52;9.95;;;5.40;;
60026;SDS011;45891;53.006;6.512;2022-09-12T13:34:33;11.52;;;4.90;;
60026;SDS011;45891;53.006;6.512;2022-09-12T13:39:46;9.45;;;4.22;;
60026;SDS011;45891;53.006;6.512;2022-09-12T13:47:30;9.75;;;4.35;;
60026;SDS011;45891;53.006;6.512;2022-09-12T13:49:57;11.20;;;4.95;;
60026;SDS011;45891;53.006;6.512;2022-09-12T13:52:25;10.15;;;5.60;;
60026;SDS011;45891;53.006;6.512;2022-09-12T13:54:55;9.98;;;4.90;;
60026;SDS011;45891;53.006;6.512;2022-09-12T13:57:27;11.25;;;4.90;;
60026;SDS011;45891;53.006;6.512;2022-09-12T13:59:55;10.20;;;4.70;;
60026;SDS011;45891;53.006;6.512;2022-09-12T14:02:22;11.05;;;5.05;;
60026;SDS011;45891;53.006;6.512;2022-09-12T14:04:51;10.82;;;5.85;;
60026;SDS011;45891;53.006;6.512;2022-09-12T14:07:37;11.38;;;6.07;;
60026;SDS011;45891;53.006;6.512;2022-09-12T14:10:31;11.07;;;6.55;;
60026;SDS011;45891;53.006;6.512;2022-09-12T14:13:00;13.05;;;7.93;;
60026;SDS011;45891;53.006;6.512;2022-09-12T14:17:59;13.52;;;7.68;;
60026;SDS011;45891;53.006;6.512;2022-09-12T14:20:28;13.30;;;8.00;;
60026;SDS011;45891;53.006;6.512;2022-09-12T14:23:00;12.65;;;7.63;;
60026;SDS011;45891;53.006;6.512;2022-09-12T14:25:29;13.10;;;7.78;;
60026;SDS011;45891;53.006;6.512;2022-09-12T14:28:04;13.25;;;8.13;;
60026;SDS011;45891;53.006;6.512;2022-09-12T14:35:37;13.68;;;7.60;;
60026;SDS011;45891;53.006;6.512;2022-09-12T14:38:07;12.20;;;7.47;;
60026;SDS011;45891;53.006;6.512;2022-09-12T14:41:07;12.82;;;7.10;;
60026;SDS011;45891;53.006;6.512;2022-09-12T14:43:35;11.50;;;7.05;;
60026;SDS011;45891;53.006;6.512;2022-09-12T14:46:05;12.00;;;7.38;;
60026;SDS011;45891;53.006;6.512;2022-09-12T14:48:42;11.25;;;6.70;;
60026;SDS011;45891;53.006;6.512;2022-09-12T14:51:47;12.30;;;7.10;;
60026;SDS011;45891;53.006;6.512;2022-09-12T14:57:03;12.27;;;6.75;;
60026;SDS011;45891;53.006;6.512;2022-09-12T14:59:48;11.70;;;6.10;;
60026;SDS011;45891;53.006;6.512;2022-09-12T15:04:52;12.40;;;5.60;;
60026;SDS011;45891;53.006;6.512;2022-09-12T15:07:40;9.98;;;4.85;;
60026;SDS011;45891;53.006;6.512;2022-09-12T15:15:39;10.00;;;4.30;;
60026;SDS011;45891;53.006;6.512;2022-09-12T15:18:07;8.93;;;4.00;;
60026;SDS011;45891;53.006;6.512;2022-09-12T15:20:39;13.10;;;5.15;;
60026;SDS011;45891;53.006;6.512;2022-09-12T15:23:09;11.70;;;5.15;;
60026;SDS011;45891;53.006;6.512;2022-09-12T15:25:43;10.88;;;4.55;;
60026;SDS011;45891;53.006;6.512;2022-09-12T15:28:12;10.82;;;3.92;;
60026;SDS011;45891;53.006;6.512;2022-09-12T15:30:42;9.00;;;4.00;;
60026;SDS011;45891;53.006;6.512;2022-09-12T15:33:09;8.60;;;3.88;;
60026;SDS011;45891;53.006;6.512;2022-09-12T15:35:36;9.38;;;3.63;;
60026;SDS011;45891;53.006;6.512;2022-09-12T15:38:02;11.25;;;3.60;;
60026;SDS011;45891;53.006;6.512;2022-09-12T15:40:28;9.10;;;3.40;;
60026;SDS011;45891;53.006;6.512;2022-09-12T15:42:54;9.40;;;3.58;;
60026;SDS011;45891;53.006;6.512;2022-09-12T15:45:22;8.05;;;3.10;;
60026;SDS011;45891;53.006;6.512;2022-09-12T15:47:52;8.30;;;3.45;;
60026;SDS011;45891;53.006;6.512;2022-09-12T15:50:18;8.23;;;3.20;;
60026;SDS011;45891;53.006;6.512;2022-09-12T15:52:44;8.60;;;3.20;;
60026;SDS011;45891;53.006;6.512;2022-09-12T15:55:14;10.18;;;3.13;;
60026;SDS011;45891;53.006;6.512;2022-09-12T15:57:48;9.05;;;3.13;;
60026;SDS011;45891;53.006;6.512;2022-09-12T16:00:16;6.97;;;2.90;;
60026;SDS011;45891;53.006;6.512;2022-09-12T16:02:44;7.10;;;2.90;;
60026;SDS011;45891;53.006;6.512;2022-09-12T16:05:15;7.87;;;2.87;;
60026;SDS011;45891;53.006;6.512;2022-09-12T16:07:50;9.45;;;3.10;;
60026;SDS011;45891;53.006;6.512;2022-09-12T16:10:21;9.43;;;2.90;;
60026;SDS011;45891;53.006;6.512;2022-09-12T16:12:50;8.45;;;3.00;;
60026;SDS011;45891;53.006;6.512;2022-09-12T16:15:17;9.38;;;2.85;;
60026;SDS011;45891;53.006;6.512;2022-09-12T16:17:45;8.40;;;3.03;;
60026;SDS011;45891;53.006;6.512;2022-09-12T16:20:11;9.57;;;2.80;;
60026;SDS011;45891;53.006;6.512;2022-09-12T16:22:38;7.95;;;2.95;;
60026;SDS011;45891;53.006;6.512;2022-09-12T16:25:04;7.60;;;2.83;;
60026;SDS011;45891;53.006;6.512;2022-09-12T16:27:32;8.32;;;3.00;;
60026;SDS011;45891;53.006;6.512;2022-09-12T16:29:59;7.50;;;2.88;;
60026;SDS011;45891;53.006;6.512;2022-09-12T16:32:25;8.05;;;2.88;;
60026;SDS011;45891;53.006;6.512;2022-09-12T16:34:51;9.85;;;3.17;;
60026;SDS011;45891;53.006;6.512;2022-09-12T16:37:18;10.43;;;3.08;;
60026;SDS011;45891;53.006;6.512;2022-09-12T16:39:44;7.57;;;3.10;;
60026;SDS011;45891;53.006;6.512;2022-09-12T16:42:11;8.40;;;3.15;;
60026;SDS011;45891;53.006;6.512;2022-09-12T16:44:37;7.32;;;3.08;;
60026;SDS011;45891;53.006;6.512;2022-09-12T16:47:03;7.50;;;3.08;;
60026;SDS011;45891;53.006;6.512;2022-09-12T16:49:29;7.50;;;3.10;;
60026;SDS011;45891;53.006;6.512;2022-09-12T16:51:55;10.23;;;2.90;;
60026;SDS011;45891;53.006;6.512;2022-09-12T16:54:21;7.60;;;2.95;;
60026;SDS011;45891;53.006;6.512;2022-09-12T16:56:48;8.30;;;3.05;;
60026;SDS011;45891;53.006;6.512;2022-09-12T16:59:14;10.48;;;3.30;;
60026;SDS011;45891;53.006;6.512;2022-09-12T17:01:41;8.00;;;3.10;;
60026;SDS011;45891;53.006;6.512;2022-09-12T17:04:08;8.80;;;2.90;;
60026;SDS011;45891;53.006;6.512;2022-09-12T17:06:35;9.77;;;3.08;;
60026;SDS011;45891;53.006;6.512;2022-09-12T17:09:01;9.93;;;3.08;;
60026;SDS011;45891;53.006;6.512;2022-09-12T17:11:32;8.68;;;3.17;;
60026;SDS011;45891;53.006;6.512;2022-09-12T17:14:01;8.38;;;3.10;;
60026;SDS011;45891;53.006;6.512;2022-09-12T17:16:30;7.80;;;2.92;;
60026;SDS011;45891;53.006;6.512;2022-09-12T17:18:58;10.15;;;3.22;;
60026;SDS011;45891;53.006;6.512;2022-09-12T17:21:24;8.73;;;3.30;;
60026;SDS011;45891;53.006;6.512;2022-09-12T17:23:51;8.50;;;3.65;;
60026;SDS011;45891;53.006;6.512;2022-09-12T17:26:17;9.90;;;3.50;;
60026;SDS011;45891;53.006;6.512;2022-09-12T17:28:43;10.63;;;4.00;;